Flight Track Log - Related Links

Times and Time Zones

All times are in EDT time to prevent confusion due to time zone crossing. See the UAL1402 flight status page for this flight to view local times or setup timezone preferences in your user account.

Time Position Orientation Groundspeed Altitude Reporting Facility
EDT Latitude Longitude Course Direction KTS MPH feet Rate Location/Type
Sat 01:07:24 AM 29.9680 -95.2730 141° Southeast 166 191 1,700  Level FlightAware ADS-B
Sat 01:07:56 AM 29.9460 -95.2540 143° Southeast 199 229 2,600 2,100 Climbing FlightAware ADS-B
Sat 01:08:24 AM 29.9220 -95.2400 153° Southeast 216 249 3,800 2,357 Climbing FlightAware ADS-B
Sat 01:08:52 AM 29.8950 -95.2250 154° Southeast 242 278 4,800 2,409 Climbing FlightAware ADS-B
Sat 01:12:58 AM 29.5940 -95.0520 154° Southeast 355 409 14,800 2,413 Climbing FlightAware ADS-B
Sat 01:13:38 AM 29.5430 -95.0000 138° Southeast 370 426 16,300 2,160 Climbing FlightAware ADS-B
Sat 01:15:03 AM 29.4470 -94.8710 131° Southeast 390 449 19,300 1,457 Climbing FlightAware ADS-B
Sat 01:17:45 AM 29.2700 -94.6330 130° Southeast 408 470 22,300 1,673 Climbing FlightAware ADS-B
Sat 01:19:14 AM 29.1330 -94.4540 131° Southeast 438 504 26,300 1,875 Climbing FlightAware ADS-B
Sat 01:19:53 AM 29.0890 -94.3950 130° Southeast 438 504 26,300  Level FlightAware ADS-B
Sat 01:20:33 AM 29.0450 -94.3350 130° Southeast 438 504 26,300  Level FlightAware ADS-B
Sat 01:21:21 AM 28.9920 -94.2620 130° Southeast 438 504 26,300  Level FlightAware ADS-B
Sat 01:21:57 AM 28.9520 -94.2080 130° Southeast 438 504 26,300  Level FlightAware ADS-B
Sat 01:22:45 AM 28.8990 -94.1360 130° Southeast 438 504 26,300 2,649 Level FlightAware ADS-B
Sat 01:23:48 AM 28.7456 -93.9458 130° Southeast 484 557 31,200 3,073 Climbing Houston Center
Sat 01:24:48 AM 28.6569 -93.8319 132° Southeast 481 554 32,600 1,339 Climbing Houston Center
Sat 01:25:49 AM 28.5692 -93.7181 131° Southeast 478 550 33,900 1,190 Climbing Houston Center
Sat 01:26:49 AM 28.4822 -93.6064 132° Southeast 473 544 35,000 1,000 Climbing Houston Center
Sat 01:27:49 AM 28.3964 -93.4953 131° Southeast 471 542 35,900 843 Climbing Houston Center
Sat 01:28:50 AM 28.3108 -93.3822 131° Southeast 472 543 36,700 545 Climbing Houston Center
Sat 01:29:50 AM 28.2239 -93.2719 132° Southeast 469 540 37,000 100 Climbing Houston Center
Sat 01:30:50 AM 28.1478 -93.1747 132° Southeast 466 536 36,900  Descending Houston Center
Sat 01:31:51 AM 28.0619 -93.0639 131° Southeast 468 539 37,000  Climbing Houston Center
Sat 01:32:51 AM 27.9769 -92.9533 131° Southeast 467 537 36,900  Descending Houston Center
Sat 01:33:52 AM 27.8908 -92.8458 132° Southeast 465 535 37,000  Climbing Houston Center
Sat 01:34:52 AM 27.8044 -92.7364 132° Southeast 466 536 36,900 -100 Descending Houston Center
Sat 01:36:00 AM 27.7062 -92.6127 131° Southeast  Level FlightAware Approximate
Sat 01:43:00 AM 27.0861 -91.8687 144° Southeast  Level FlightAware Approximate
Sat 01:44:00 AM 26.9805 -91.7841 144° Southeast  Level FlightAware Approximate
Sat 01:45:00 AM 26.8748 -91.6997 145° Southeast  Level FlightAware Approximate
Sat 01:46:00 AM 26.7691 -91.6154 145° Southeast  Level FlightAware Approximate
Sat 01:47:00 AM 26.6633 -91.5313 145° Southeast  Level FlightAware Approximate
Sat 01:48:00 AM 26.5575 -91.4474 145° Southeast  Level FlightAware Approximate
Sat 01:49:00 AM 26.4516 -91.3636 145° Southeast  Level FlightAware Approximate
Sat 01:50:00 AM 26.3457 -91.2799 145° Southeast  Level FlightAware Approximate
Sat 01:51:00 AM 26.2398 -91.1964 145° Southeast  Level FlightAware Approximate
Sat 01:52:00 AM 26.1338 -91.1130 145° Southeast  Level FlightAware Approximate
Sat 01:53:00 AM 26.0278 -91.0297 145° Southeast  Level FlightAware Approximate
Sat 01:54:00 AM 25.9217 -90.9466 145° Southeast  Level FlightAware Approximate
Sat 01:55:00 AM 25.8156 -90.8636 145° Southeast  Level FlightAware Approximate
Sat 01:56:00 AM 25.7094 -90.7808 145° Southeast  Level FlightAware Approximate
Sat 01:57:00 AM 25.6032 -90.6982 145° Southeast  Level FlightAware Approximate
Sat 01:58:00 AM 25.4970 -90.6156 145° Southeast  Level FlightAware Approximate
Sat 01:59:00 AM 25.3907 -90.5333 145° Southeast  Level FlightAware Approximate
Sat 02:00:00 AM 25.2843 -90.4510 145° Southeast  Level FlightAware Approximate
Sat 02:01:00 AM 25.1780 -90.3689 145° Southeast  Level FlightAware Approximate
Sat 02:02:00 AM 25.0715 -90.2870 145° Southeast  Level FlightAware Approximate
Sat 02:03:00 AM 24.9650 -90.2052 145° Southeast  Level FlightAware Approximate
Sat 02:04:00 AM 24.8585 -90.1236 145° Southeast  Level FlightAware Approximate
Sat 02:05:00 AM 24.7520 -90.0420 145° Southeast  Level FlightAware Approximate
Sat 02:06:00 AM 24.6453 -89.9607 145° Southeast  Level FlightAware Approximate
Sat 02:07:00 AM 24.5387 -89.8794 145° Southeast  Level FlightAware Approximate
Sat 02:08:00 AM 24.4527 -89.7764 121° Southeast  Level FlightAware Approximate
Sat 02:09:00 AM 24.3867 -89.6538 121° Southeast  Level FlightAware Approximate
Sat 02:10:00 AM 24.3207 -89.5312 121° Southeast  Level FlightAware Approximate
Sat 02:11:00 AM 24.2547 -89.4087 121° Southeast  Level FlightAware Approximate
Sat 02:12:00 AM 24.1939 -89.2830 118° Southeast  Level FlightAware Approximate
Sat 02:13:00 AM 24.1334 -89.1572 118° Southeast  Level FlightAware Approximate
Sat 02:14:00 AM 24.0728 -89.0315 118° Southeast  Level FlightAware Approximate
Sat 02:15:00 AM 24.0089 -88.9080 123° Southeast  Level FlightAware Approximate
Sat 02:16:00 AM 23.9391 -88.7883 123° Southeast  Level FlightAware Approximate
Sat 02:17:00 AM 23.8745 -88.6653 119° Southeast  Level FlightAware Approximate
Sat 02:18:00 AM 23.8123 -88.5408 119° Southeast  Level FlightAware Approximate
Sat 02:19:00 AM 23.7501 -88.4165 119° Southeast  Level FlightAware Approximate
Sat 02:20:00 AM 23.6874 -88.2924 120° Southeast  Level FlightAware Approximate
Sat 02:21:00 AM 23.6232 -88.1693 120° Southeast  Level FlightAware Approximate
Sat 02:22:00 AM 23.5590 -88.0463 120° Southeast  Level FlightAware Approximate
Sat 02:23:00 AM 23.4946 -87.9234 120° Southeast  Level FlightAware Approximate
Sat 02:24:00 AM 23.4302 -87.8007 120° Southeast  Level FlightAware Approximate
Sat 02:25:00 AM 23.3657 -87.6780 120° Southeast  Level FlightAware Approximate
Sat 02:26:00 AM 23.3010 -87.5555 120° Southeast  Level FlightAware Approximate
Sat 02:27:00 AM 23.2363 -87.4331 120° Southeast  Level FlightAware Approximate
Sat 02:28:00 AM 23.1715 -87.3109 120° Southeast  Level FlightAware Approximate
Sat 02:29:00 AM 23.1066 -87.1887 120° Southeast  Level FlightAware Approximate
Sat 02:30:00 AM 23.0415 -87.0667 120° Southeast  Level FlightAware Approximate
Sat 02:31:00 AM 22.9764 -86.9447 120° Southeast  Level FlightAware Approximate
Sat 02:32:00 AM 22.9112 -86.8230 120° Southeast  Level FlightAware Approximate
Sat 02:33:00 AM 22.8459 -86.7013 120° Southeast  Level FlightAware Approximate
Sat 02:34:00 AM 22.7806 -86.5797 120° Southeast  Level FlightAware Approximate
Sat 02:35:00 AM 22.7151 -86.4582 120° Southeast  Level FlightAware Approximate
Sat 02:36:00 AM 22.6495 -86.3369 120° Southeast  Level FlightAware Approximate
Sat 02:37:00 AM 22.5839 -86.2157 120° Southeast  Level FlightAware Approximate
Sat 02:38:00 AM 22.5181 -86.0946 120° Southeast  Level FlightAware Approximate
Sat 02:39:00 AM 22.4524 -85.9735 120° Southeast  Level FlightAware Approximate
Sat 02:40:00 AM 22.3868 -85.8524 120° Southeast  Level FlightAware Approximate
Sat 02:41:00 AM 22.3212 -85.7314 120° Southeast  Level FlightAware Approximate
Sat 02:42:00 AM 22.2555 -85.6105 120° Southeast  Level FlightAware Approximate
Sat 02:43:00 AM 22.1897 -85.4898 120° Southeast  Level FlightAware Approximate
Sat 02:44:00 AM 22.1238 -85.3691 121° Southeast  Level FlightAware Approximate
Sat 02:45:00 AM 22.0578 -85.2485 121° Southeast  Level FlightAware Approximate
Sat 02:46:00 AM 21.9917 -85.1281 121° Southeast  Level FlightAware Approximate
Sat 02:47:00 AM 21.9255 -85.0078 121° Southeast  Level FlightAware Approximate
Sat 02:48:00 AM 21.8593 -84.8876 121° Southeast  Level FlightAware Approximate
Sat 02:49:00 AM 21.7929 -84.7675 121° Southeast  Level FlightAware Approximate
Sat 02:50:00 AM 21.7265 -84.6475 121° Southeast  Level FlightAware Approximate
Sat 02:51:00 AM 21.6600 -84.5276 121° Southeast  Level FlightAware Approximate
Sat 02:52:00 AM 21.5934 -84.4078 121° Southeast  Level FlightAware Approximate
Sat 02:53:00 AM 21.5267 -84.2882 121° Southeast  Level FlightAware Approximate
Sat 02:54:00 AM 21.4599 -84.1686 121° Southeast  Level FlightAware Approximate
Sat 02:55:00 AM 21.3931 -84.0492 121° Southeast  Level FlightAware Approximate
Sat 02:56:00 AM 21.3261 -83.9298 121° Southeast  Level FlightAware Approximate
Sat 02:57:00 AM 21.2591 -83.8106 121° Southeast  Level FlightAware Approximate
Sat 02:58:00 AM 21.1920 -83.6915 121° Southeast  Level FlightAware Approximate
Sat 02:59:00 AM 21.1248 -83.5725 121° Southeast  Level FlightAware Approximate
Sat 03:00:00 AM 21.0575 -83.4536 121° Southeast  Level FlightAware Approximate
Sat 03:01:00 AM 20.9902 -83.3348 121° Southeast  Level FlightAware Approximate
Sat 03:02:00 AM 20.9227 -83.2161 121° Southeast  Level FlightAware Approximate
Sat 03:03:00 AM 20.8552 -83.0975 121° Southeast  Level FlightAware Approximate
Sat 03:04:00 AM 20.7876 -82.9791 121° Southeast  Level FlightAware Approximate
Sat 03:05:00 AM 20.7199 -82.8607 121° Southeast  Level FlightAware Approximate
Sat 03:06:00 AM 20.6522 -82.7425 121° Southeast  Level FlightAware Approximate
Sat 03:07:00 AM 20.5843 -82.6243 122° Southeast  Level FlightAware Approximate
Sat 03:08:00 AM 20.5164 -82.5063 122° Southeast  Level FlightAware Approximate
Sat 03:09:00 AM 20.4484 -82.3883 122° Southeast  Level FlightAware Approximate
Sat 03:10:00 AM 20.3803 -82.2705 122° Southeast  Level FlightAware Approximate
Sat 03:11:00 AM 20.3121 -82.1527 122° Southeast  Level FlightAware Approximate
Sat 03:12:00 AM 20.2439 -82.0351 122° Southeast  Level FlightAware Approximate
Sat 03:13:00 AM 20.1756 -81.9176 122° Southeast  Level FlightAware Approximate
Sat 03:14:00 AM 20.1072 -81.8002 122° Southeast  Level FlightAware Approximate
Sat 03:15:00 AM 20.0387 -81.6829 122° Southeast  Level FlightAware Approximate
Sat 03:16:00 AM 19.9700 -81.5657 122° Southeast  Level FlightAware Approximate
Sat 03:17:00 AM 19.9011 -81.4488 122° Southeast  Level FlightAware Approximate
Sat 03:18:00 AM 19.8322 -81.3319 122° Southeast  Level FlightAware Approximate
Sat 03:19:00 AM 19.7631 -81.2152 122° Southeast  Level FlightAware Approximate
Sat 03:20:00 AM 19.6940 -81.0985 122° Southeast  Level FlightAware Approximate
Sat 03:21:00 AM 19.6248 -80.9820 122° Southeast  Level FlightAware Approximate
Sat 03:22:00 AM 19.5555 -80.8655 122° Southeast  Level FlightAware Approximate
Sat 03:23:00 AM 19.4862 -80.7492 122° Southeast  Level FlightAware Approximate
Sat 03:24:00 AM 19.4168 -80.6330 122° Southeast  Level FlightAware Approximate
Sat 03:25:00 AM 19.3473 -80.5168 122° Southeast  Level FlightAware Approximate
Sat 03:26:00 AM 19.2778 -80.4008 122° Southeast  Level FlightAware Approximate
Sat 03:27:00 AM 19.2081 -80.2849 122° Southeast  Level FlightAware Approximate
Sat 03:28:00 AM 19.1384 -80.1690 122° Southeast  Level FlightAware Approximate
Sat 03:29:00 AM 19.0686 -80.0533 123° Southeast  Level FlightAware Approximate
Sat 03:30:00 AM 18.9986 -79.9377 123° Southeast  Level FlightAware Approximate
Sat 03:31:00 AM 18.9286 -79.8222 123° Southeast  Level FlightAware Approximate
Sat 03:32:00 AM 18.8585 -79.7068 123° Southeast  Level FlightAware Approximate
Sat 03:33:00 AM 18.7883 -79.5916 123° Southeast  Level FlightAware Approximate
Sat 03:34:00 AM 18.7180 -79.4764 123° Southeast  Level FlightAware Approximate
Sat 03:35:00 AM 18.6477 -79.3613 123° Southeast  Level FlightAware Approximate
Sat 03:36:00 AM 18.5773 -79.2463 123° Southeast  Level FlightAware Approximate
Sat 03:37:00 AM 18.5068 -79.1314 123° Southeast  Level FlightAware Approximate
Sat 03:38:00 AM 18.4362 -79.0166 123° Southeast  Level FlightAware Approximate
Sat 03:39:00 AM 18.3656 -78.9019 123° Southeast  Level FlightAware Approximate
Sat 03:40:00 AM 18.2950 -78.7873 123° Southeast  Level FlightAware Approximate
Sat 03:41:00 AM 18.2242 -78.6728 123° Southeast  Level FlightAware Approximate
Sat 03:42:00 AM 18.1534 -78.5584 123° Southeast  Level FlightAware Approximate
Sat 03:43:00 AM 18.0825 -78.4441 123° Southeast  Level FlightAware Approximate
Sat 03:44:00 AM 18.0115 -78.3298 123° Southeast  Level FlightAware Approximate
Sat 03:45:00 AM 17.9405 -78.2157 123° Southeast  Level FlightAware Approximate
Sat 03:46:00 AM 17.8694 -78.1016 123° Southeast  Level FlightAware Approximate
Sat 03:47:00 AM 17.7983 -77.9877 123° Southeast  Level FlightAware Approximate
Sat 03:48:00 AM 17.7271 -77.8738 123° Southeast  Level FlightAware Approximate
Sat 03:49:00 AM 17.6558 -77.7600 123° Southeast  Level FlightAware Approximate
Sat 03:50:00 AM 17.5844 -77.6463 123° Southeast  Level FlightAware Approximate
Sat 03:51:00 AM 17.5130 -77.5327 123° Southeast  Level FlightAware Approximate
Sat 03:52:00 AM 17.4415 -77.4192 123° Southeast  Level FlightAware Approximate
Sat 03:53:00 AM 17.3700 -77.3058 123° Southeast  Level FlightAware Approximate
Sat 03:54:00 AM 17.2984 -77.1925 123° Southeast  Level FlightAware Approximate
Sat 03:55:00 AM 17.2267 -77.0792 124° Southeast  Level FlightAware Approximate
Sat 03:56:00 AM 17.1550 -76.9661 124° Southeast  Level FlightAware Approximate
Sat 03:57:00 AM 17.0832 -76.8530 124° Southeast  Level FlightAware Approximate
Sat 03:58:00 AM 17.0113 -76.7400 124° Southeast  Level FlightAware Approximate
Sat 03:59:00 AM 16.9394 -76.6271 124° Southeast  Level FlightAware Approximate
Sat 04:00:00 AM 16.8674 -76.5143 124° Southeast  Level FlightAware Approximate
Sat 04:01:00 AM 16.7954 -76.4016 124° Southeast  Level FlightAware Approximate
Sat 04:02:00 AM 16.7233 -76.2889 124° Southeast  Level FlightAware Approximate
Sat 04:03:00 AM 16.6511 -76.1764 124° Southeast  Level FlightAware Approximate
Sat 04:04:00 AM 16.5789 -76.0639 124° Southeast  Level FlightAware Approximate
Sat 04:05:00 AM 16.5066 -75.9516 124° Southeast  Level FlightAware Approximate
Sat 04:06:00 AM 16.4342 -75.8392 124° Southeast  Level FlightAware Approximate
Sat 04:07:00 AM 16.3618 -75.7270 124° Southeast  Level FlightAware Approximate
Sat 04:08:00 AM 16.2893 -75.6149 124° Southeast  Level FlightAware Approximate
Sat 04:09:00 AM 16.2168 -75.5029 124° Southeast  Level FlightAware Approximate
Sat 04:10:00 AM 16.1442 -75.3909 124° Southeast  Level FlightAware Approximate
Sat 04:11:00 AM 16.0716 -75.2790 124° Southeast  Level FlightAware Approximate
Sat 04:12:00 AM 15.9989 -75.1672 124° Southeast  Level FlightAware Approximate
Sat 04:13:00 AM 15.9261 -75.0555 124° Southeast  Level FlightAware Approximate
Sat 04:14:00 AM 15.8533 -74.9438 124° Southeast  Level FlightAware Approximate
Sat 04:15:00 AM 15.7804 -74.8323 124° Southeast  Level FlightAware Approximate
Sat 04:16:00 AM 15.7075 -74.7208 124° Southeast  Level FlightAware Approximate
Sat 04:17:00 AM 15.6345 -74.6094 124° Southeast  Level FlightAware Approximate
Sat 04:18:00 AM 15.5615 -74.4981 124° Southeast  Level FlightAware Approximate
Sat 04:19:00 AM 15.4884 -74.3868 124° Southeast  Level FlightAware Approximate
Sat 04:20:00 AM 15.4152 -74.2757 124° Southeast  Level FlightAware Approximate
Sat 04:21:00 AM 15.3420 -74.1646 124° Southeast  Level FlightAware Approximate
Sat 04:22:00 AM 15.2687 -74.0536 124° Southeast  Level FlightAware Approximate
Sat 04:23:00 AM 15.1956 -73.9425 124° Southeast  Level FlightAware Approximate
Sat 04:24:00 AM 15.1225 -73.8314 124° Southeast  Level FlightAware Approximate
Sat 04:25:00 AM 15.0494 -73.7204 124° Southeast  Level FlightAware Approximate
Sat 04:26:00 AM 14.9763 -73.6095 124° Southeast  Level FlightAware Approximate
Sat 04:27:00 AM 14.9031 -73.4986 124° Southeast  Level FlightAware Approximate
Sat 04:28:00 AM 14.8298 -73.3878 124° Southeast  Level FlightAware Approximate
Sat 04:29:00 AM 14.7565 -73.2771 124° Southeast  Level FlightAware Approximate
Sat 04:30:00 AM 14.6832 -73.1665 124° Southeast  Level FlightAware Approximate
Sat 04:31:00 AM 14.6097 -73.0559 124° Southeast  Level FlightAware Approximate
Sat 04:32:00 AM 14.5363 -72.9454 124° Southeast  Level FlightAware Approximate
Sat 04:33:00 AM 14.4628 -72.8350 125° Southeast  Level FlightAware Approximate
Sat 04:34:00 AM 14.3892 -72.7247 125° Southeast  Level FlightAware Approximate
Sat 04:35:00 AM 14.3156 -72.6144 125° Southeast  Level FlightAware Approximate
Sat 04:36:00 AM 14.2419 -72.5042 125° Southeast  Level FlightAware Approximate
Sat 04:37:00 AM 14.1682 -72.3941 125° Southeast  Level FlightAware Approximate
Sat 04:38:00 AM 14.0944 -72.2840 125° Southeast  Level FlightAware Approximate
Sat 04:39:00 AM 14.0206 -72.1741 125° Southeast  Level FlightAware Approximate
Sat 04:40:00 AM 13.9467 -72.0641 125° Southeast  Level FlightAware Approximate
Sat 04:41:00 AM 13.8728 -71.9543 125° Southeast  Level FlightAware Approximate
Sat 04:42:00 AM 13.7988 -71.8445 125° Southeast  Level FlightAware Approximate
Sat 04:43:00 AM 13.7248 -71.7348 125° Southeast  Level FlightAware Approximate
Sat 04:44:00 AM 13.6507 -71.6252 125° Southeast  Level FlightAware Approximate
Sat 04:45:00 AM 13.5766 -71.5156 125° Southeast  Level FlightAware Approximate
Sat 04:46:00 AM 13.5025 -71.4062 125° Southeast  Level FlightAware Approximate
Sat 04:47:00 AM 13.4283 -71.2967 125° Southeast  Level FlightAware Approximate
Sat 04:48:00 AM 13.3540 -71.1874 125° Southeast  Level FlightAware Approximate
Sat 04:49:00 AM 13.2797 -71.0781 125° Southeast  Level FlightAware Approximate
Sat 04:50:00 AM 13.2053 -70.9689 125° Southeast  Level FlightAware Approximate
Sat 04:51:00 AM 13.1309 -70.8597 125° Southeast  Level FlightAware Approximate
Sat 04:52:00 AM 13.0565 -70.7506 125° Southeast  Level FlightAware Approximate
Sat 04:53:00 AM 12.9865 -70.6386 122° Southeast  Level FlightAware Approximate
Sat 04:54:00 AM 12.9164 -70.5266 127° Southeast  Level FlightAware Approximate
Sat 04:55:00 AM 12.8389 -70.4199 127° Southeast  Level FlightAware Approximate
Sat 04:56:00 AM 12.7613 -70.3133 127° Southeast  Level FlightAware Approximate
Sat 04:57:00 AM 12.6837 -70.2067 127° Southeast  Level FlightAware Approximate
Sat 04:58:00 AM 12.6147 -70.0950 131° Southeast  Level FlightAware Approximate
Sat 04:59:00 AM 12.5304 -69.9942 117° Southeast  Level FlightAware Approximate
Sat 05:00:00 AM 12.4713 -69.8759 117° Southeast  Level FlightAware Approximate
Sat 05:01:00 AM 12.4322 -69.7494 107° East  Level FlightAware Approximate
Sat 05:02:00 AM 12.3948 -69.6222 107° East  Level FlightAware Approximate
Sat 05:03:00 AM 12.3543 -69.4960 109° East  Level FlightAware Approximate
Sat 05:04:00 AM 12.3125 -69.3703 109° East  Level FlightAware Approximate
Sat 05:05:00 AM 12.2706 -69.2446 109° East  Level FlightAware Approximate
Sat 05:06:00 AM 12.2286 -69.1190 109° East  Level FlightAware Approximate
Sat 05:07:00 AM 12.1833 -68.9950 90° East  Level FlightAware Approximate
Sat 05:08:00 AM 12.1792 -68.8624 94° East  Level FlightAware Approximate
Sat 05:09:00 AM 12.1690 -68.7301 94° East  Level FlightAware Approximate
Sat 05:10:00 AM 12.1565 -68.5980 96° East  Level FlightAware Approximate
Sat 05:11:00 AM 12.1493 -68.4660 136° Southeast  Level FlightAware Approximate
Sat 05:12:00 AM 12.1290 -68.3405 100° East  Level FlightAware Approximate

Login

Don't have an account? Register now (free) for customized features, flight alerts, and more!